createdAt,value
2018-04-02T00:00:45.905Z,5.54
2018-04-02T00:01:45.920Z,5.39
2018-04-02T00:02:45.936Z,5.32
2018-04-02T00:03:45.948Z,5.26
2018-04-02T00:04:45.961Z,5.35
2018-04-02T00:05:45.975Z,5.43
2018-04-02T00:06:45.989Z,5.50
2018-04-02T00:07:46.002Z,5.38
2018-04-02T00:08:46.018Z,5.44
2018-04-02T00:09:46.031Z,5.44
2018-04-02T00:10:46.044Z,5.47
2018-04-02T00:11:46.059Z,5.36
2018-04-02T00:12:46.073Z,5.41
2018-04-02T00:13:46.093Z,5.48
2018-04-02T00:14:46.103Z,5.43
2018-04-02T00:15:46.119Z,5.47
2018-04-02T00:16:46.129Z,5.50
2018-04-02T00:17:46.144Z,5.41
2018-04-02T00:18:46.175Z,5.36
2018-04-02T00:19:46.173Z,5.36
2018-04-02T00:20:46.186Z,5.36
2018-04-02T00:21:46.200Z,5.23
2018-04-02T00:22:46.218Z,5.21
2018-04-02T00:23:46.228Z,5.20
2018-04-02T00:24:46.245Z,5.21
2018-04-02T00:25:46.255Z,5.17
2018-04-02T00:26:46.274Z,5.14
2018-04-02T00:27:46.289Z,5.07
2018-04-02T00:28:46.299Z,5.14
2018-04-02T00:29:46.311Z,5.21
2018-04-02T00:30:46.328Z,4.96
2018-04-02T00:31:46.341Z,4.97
2018-04-02T00:32:46.357Z,5.00
2018-04-02T00:33:46.369Z,4.97
2018-04-02T00:34:46.385Z,5.04
2018-04-02T00:35:46.402Z,4.97
2018-04-02T00:36:46.425Z,5.02
2018-04-02T00:37:46.421Z,4.96
2018-04-02T00:38:46.438Z,4.97
2018-04-02T00:39:46.452Z,5.02
2018-04-02T00:40:46.464Z,4.92
2018-04-02T00:41:46.481Z,5.04
2018-04-02T00:42:46.494Z,4.99
2018-04-02T00:43:46.505Z,4.93
2018-04-02T00:44:46.521Z,5.00
2018-04-02T00:45:46.533Z,4.96
2018-04-02T00:46:46.548Z,4.93
2018-04-02T00:47:46.562Z,4.92
2018-04-02T00:48:46.617Z,4.90
2018-04-02T00:49:46.589Z,4.86
2018-04-02T00:50:46.603Z,4.84
2018-04-02T00:51:46.618Z,4.89
2018-04-02T00:52:46.633Z,4.75
2018-04-02T00:53:46.653Z,4.89
2018-04-02T00:54:46.658Z,4.93
2018-04-02T00:55:46.672Z,4.80
2018-04-02T00:56:46.692Z,4.71
2018-04-02T00:57:46.700Z,4.56
2018-04-02T00:58:46.714Z,4.71
2018-04-02T00:59:46.728Z,4.70
2018-04-02T01:00:46.744Z,4.71
2018-04-02T01:01:46.757Z,4.70
2018-04-02T01:02:46.769Z,4.53
2018-04-02T01:03:46.783Z,4.38
2018-04-02T01:04:46.799Z,4.58
2018-04-02T01:05:46.810Z,4.62
2018-04-02T01:06:46.825Z,4.40
2018-04-02T01:07:46.839Z,4.32
2018-04-02T01:08:46.853Z,4.58
2018-04-02T01:09:46.865Z,4.78
2018-04-02T01:10:46.907Z,4.86
2018-04-02T01:11:46.897Z,4.84
2018-04-02T01:12:46.908Z,5.02
2018-04-02T01:13:46.923Z,5.14
2018-04-02T01:14:46.944Z,5.14
2018-04-02T01:15:46.953Z,5.25
2018-04-02T01:16:46.972Z,5.35
2018-04-02T01:17:46.976Z,5.26
2018-04-02T01:18:46.992Z,5.35
2018-04-02T01:19:47.007Z,5.21
2018-04-02T01:20:47.032Z,5.32
2018-04-02T01:21:47.034Z,5.41
2018-04-02T01:22:47.054Z,5.43
2018-04-02T01:23:47.063Z,5.38
2018-04-02T01:24:47.079Z,5.47
2018-04-02T01:25:47.092Z,5.56
2018-04-02T01:26:47.108Z,5.65
2018-04-02T01:27:47.130Z,5.59
2018-04-02T01:28:47.140Z,5.62
2018-04-02T01:29:47.151Z,5.66
2018-04-02T01:30:47.164Z,5.68
2018-04-02T01:31:47.176Z,5.79
2018-04-02T01:32:47.190Z,5.75
2018-04-02T01:33:47.203Z,5.57
2018-04-02T01:34:47.223Z,5.50
2018-04-02T01:35:47.234Z,5.59
2018-04-02T01:36:47.248Z,5.75
2018-04-02T01:37:47.261Z,5.72
2018-04-02T01:38:47.276Z,5.61
2018-04-02T01:39:47.290Z,5.72
2018-04-02T01:40:47.303Z,5.66
2018-04-02T01:41:47.322Z,5.86
2018-04-02T01:42:47.332Z,5.86
2018-04-02T01:43:47.346Z,5.66
2018-04-02T01:44:47.367Z,5.38
2018-04-02T01:45:47.373Z,5.39
2018-04-02T01:46:47.389Z,5.46
2018-04-02T01:47:47.401Z,5.46
2018-04-02T01:48:47.418Z,5.23
2018-04-02T01:49:47.436Z,4.94
2018-04-02T01:50:47.444Z,4.86
2018-04-02T01:51:47.462Z,4.80
2018-04-02T01:52:47.476Z,4.99
2018-04-02T01:53:47.491Z,4.78
2018-04-02T01:54:47.503Z,5.04
2018-04-02T01:55:47.523Z,5.21
2018-04-02T01:56:47.531Z,5.33
2018-04-02T01:57:47.548Z,5.36
2018-04-02T01:58:47.560Z,5.33
2018-04-02T01:59:47.572Z,5.35
2018-04-02T02:00:47.586Z,5.32
2018-04-02T02:01:47.604Z,5.25
2018-04-02T02:02:47.616Z,5.25
2018-04-02T02:03:47.631Z,5.23
2018-04-02T02:04:47.649Z,5.28
2018-04-02T02:05:47.666Z,5.44
2018-04-02T02:06:47.672Z,5.72
2018-04-02T02:07:47.689Z,5.66
2018-04-02T02:08:47.700Z,5.54
2018-04-02T02:09:47.716Z,5.68
2018-04-02T02:10:47.728Z,5.66
2018-04-02T02:11:47.744Z,5.53
2018-04-02T02:12:47.757Z,5.71
2018-04-02T02:13:47.771Z,5.86
2018-04-02T02:14:47.787Z,5.89
2018-04-02T02:15:47.802Z,5.94
2018-04-02T02:16:47.815Z,6.01
2018-04-02T02:17:47.838Z,5.99
2018-04-02T02:18:47.842Z,6.04
2018-04-02T02:19:47.858Z,6.08
2018-04-02T02:20:47.871Z,6.14
2018-04-02T02:21:47.888Z,6.14
2018-04-02T02:22:47.900Z,6.17
2018-04-02T02:23:47.916Z,5.99
2018-04-02T02:24:47.935Z,5.98
2018-04-02T02:25:47.944Z,6.17
2018-04-02T02:26:47.959Z,6.33
2018-04-02T02:27:47.982Z,6.36
2018-04-02T02:28:47.988Z,6.38
2018-04-02T02:29:48.002Z,6.39
2018-04-02T02:30:48.018Z,6.27
2018-04-02T02:31:48.039Z,6.42
2018-04-02T02:32:48.047Z,6.39
2018-04-02T02:33:48.064Z,6.48
2018-04-02T02:34:48.073Z,6.51
2018-04-02T02:35:48.087Z,6.49
2018-04-02T02:36:48.107Z,6.48
2018-04-02T02:37:48.120Z,6.52
2018-04-02T02:38:48.133Z,6.51
2018-04-02T02:39:48.148Z,6.54
2018-04-02T02:40:48.160Z,6.59
2018-04-02T02:41:48.176Z,6.59
2018-04-02T02:42:48.192Z,6.59
2018-04-02T02:43:48.207Z,6.63
2018-04-02T02:44:48.221Z,6.70
2018-04-02T02:45:48.232Z,6.57
2018-04-02T02:46:48.250Z,6.62
2018-04-02T02:47:48.258Z,6.36
2018-04-02T02:48:48.283Z,6.19
2018-04-02T02:49:48.306Z,6.05
2018-04-02T02:50:48.309Z,5.97
2018-04-02T02:51:48.324Z,5.94
2018-04-02T02:52:48.340Z,5.98
2018-04-02T02:53:48.350Z,5.79
2018-04-02T02:54:48.366Z,5.64
2018-04-02T02:55:48.382Z,5.97
2018-04-02T02:56:48.392Z,5.86
2018-04-02T02:57:48.410Z,5.80
2018-04-02T02:58:48.423Z,5.84
2018-04-02T02:59:48.439Z,5.86
2018-04-02T03:00:48.456Z,5.76
2018-04-02T03:01:48.465Z,5.62
2018-04-02T03:02:48.483Z,5.84
2018-04-02T03:03:48.510Z,5.79
2018-04-02T03:04:48.514Z,5.86
2018-04-02T03:05:48.524Z,5.76
2018-04-02T03:06:48.539Z,5.97
2018-04-02T03:07:48.559Z,6.16
2018-04-02T03:08:48.576Z,6.17
2018-04-02T03:09:48.583Z,6.11
2018-04-02T03:10:48.599Z,6.02
2018-04-02T03:11:48.611Z,6.14
2018-04-02T03:12:48.628Z,6.19
2018-04-02T03:13:48.639Z,6.31
2018-04-02T03:14:48.658Z,6.35
2018-04-02T03:15:48.676Z,6.41
2018-04-02T03:16:48.687Z,6.49
2018-04-02T03:17:48.892Z,6.45
2018-04-02T03:18:48.714Z,6.45
2018-04-02T03:19:48.726Z,6.57
2018-04-02T03:20:48.744Z,6.60
2018-04-02T03:21:48.763Z,6.54
2018-04-02T03:22:48.772Z,6.44
2018-04-02T03:23:48.785Z,6.57
2018-04-02T03:24:48.800Z,6.60
2018-04-02T03:25:48.816Z,6.60
2018-04-02T03:26:48.829Z,6.56
2018-04-02T03:27:48.849Z,6.45
2018-04-02T03:28:48.859Z,6.49
2018-04-02T03:29:48.878Z,6.48
2018-04-02T03:30:48.897Z,6.46
2018-04-02T03:31:48.910Z,6.49
2018-04-02T03:32:48.917Z,6.51
2018-04-02T03:33:48.932Z,6.44
2018-04-02T03:34:48.946Z,6.56
2018-04-02T03:35:48.969Z,6.51
2018-04-02T03:36:48.982Z,6.48
2018-04-02T03:37:48.993Z,6.51
2018-04-02T03:38:49.004Z,6.44
2018-04-02T03:39:49.024Z,6.44
2018-04-02T03:40:49.036Z,6.42
2018-04-02T03:41:49.046Z,6.38
2018-04-02T03:42:49.063Z,6.39
2018-04-02T03:43:49.080Z,6.16
2018-04-02T03:44:49.096Z,6.07
2018-04-02T03:45:49.113Z,6.01
2018-04-02T03:46:49.119Z,5.87
2018-04-02T03:47:49.138Z,5.97
2018-04-02T03:48:49.149Z,5.80
2018-04-02T03:49:49.163Z,5.73
2018-04-02T03:50:49.181Z,5.68
2018-04-02T03:51:49.196Z,5.83
2018-04-02T03:52:49.209Z,5.80
2018-04-02T03:53:49.227Z,5.69
2018-04-02T03:54:49.243Z,5.84
2018-04-02T03:55:49.255Z,5.80
2018-04-02T03:56:49.264Z,5.82
2018-04-02T03:57:49.282Z,5.80
2018-04-02T03:58:49.297Z,5.71
2018-04-02T03:59:49.306Z,5.73
2018-04-02T04:00:49.323Z,5.64
2018-04-02T04:01:49.334Z,5.62
2018-04-02T04:02:49.356Z,5.71
2018-04-02T04:03:49.371Z,5.71
2018-04-02T04:04:49.380Z,5.66
2018-04-02T04:05:49.396Z,5.66
2018-04-02T04:06:49.405Z,5.68
2018-04-02T04:07:49.424Z,5.73
2018-04-02T04:08:49.435Z,5.65
2018-04-02T04:09:49.457Z,5.62
2018-04-02T04:10:49.464Z,5.64
2018-04-02T04:11:49.477Z,5.41
2018-04-02T04:12:49.495Z,5.50
2018-04-02T04:13:49.504Z,5.53
2018-04-02T04:14:49.519Z,5.59
2018-04-02T04:15:49.533Z,5.65
2018-04-02T04:16:49.549Z,5.64
2018-04-02T04:17:49.562Z,5.68
2018-04-02T04:18:49.580Z,5.64
2018-04-02T04:19:49.590Z,5.53
2018-04-02T04:20:49.604Z,5.44
2018-04-02T04:21:49.620Z,5.38
2018-04-02T04:22:49.635Z,5.44
2018-04-02T04:23:49.649Z,5.53
2018-04-02T04:24:49.664Z,5.53
2018-04-02T04:25:49.676Z,5.53
2018-04-02T04:26:49.690Z,5.54
2018-04-02T04:27:49.706Z,5.47
2018-04-02T04:28:49.719Z,5.47
2018-04-02T04:29:49.732Z,5.43
2018-04-02T04:30:49.748Z,5.39
2018-04-02T04:31:49.783Z,5.41
2018-04-02T04:32:49.777Z,5.48
2018-04-02T04:33:49.790Z,5.41
2018-04-02T04:34:49.805Z,5.30
2018-04-02T04:35:49.820Z,5.38
2018-04-02T04:36:49.833Z,5.46
2018-04-02T04:37:49.854Z,5.38
2018-04-02T04:38:49.863Z,5.38
2018-04-02T04:39:49.873Z,5.36
2018-04-02T04:40:49.890Z,5.33
2018-04-02T04:41:49.900Z,5.43
2018-04-02T04:42:49.915Z,5.29
2018-04-02T04:43:49.926Z,5.26
2018-04-02T04:44:49.944Z,5.11
2018-04-02T04:45:49.958Z,4.92
2018-04-02T04:46:49.979Z,5.17
2018-04-02T04:47:49.984Z,5.18
2018-04-02T04:48:50.012Z,5.26
2018-04-02T04:49:50.012Z,5.29
2018-04-02T04:50:50.034Z,5.30
2018-04-02T04:51:50.043Z,5.26
2018-04-02T04:52:50.055Z,5.29
2018-04-02T04:53:50.072Z,5.32
2018-04-02T04:54:50.082Z,5.04
2018-04-02T04:55:50.100Z,5.05
2018-04-02T04:56:50.112Z,5.10
2018-04-02T04:57:50.126Z,5.20
2018-04-02T04:58:50.142Z,5.15
2018-04-02T04:59:50.162Z,4.93
2018-04-02T05:00:50.171Z,4.94
2018-04-02T05:01:50.194Z,4.93
2018-04-02T05:02:50.207Z,5.08
2018-04-02T05:03:50.207Z,5.04
2018-04-02T05:04:50.222Z,5.07
2018-04-02T05:05:50.234Z,5.08
2018-04-02T05:06:50.251Z,4.97
2018-04-02T05:07:50.263Z,4.80
2018-04-02T05:08:50.280Z,4.67
2018-04-02T05:09:50.292Z,4.58
2018-04-02T05:10:50.306Z,4.66
2018-04-02T05:11:50.317Z,4.73
2018-04-02T05:12:50.340Z,4.93
2018-04-02T05:13:50.349Z,4.78
2018-04-02T05:14:50.375Z,4.78
2018-04-02T05:15:50.385Z,4.80
2018-04-02T05:16:50.391Z,4.74
2018-04-02T05:17:50.402Z,4.68
2018-04-02T05:18:50.416Z,4.66
2018-04-02T05:19:50.432Z,4.60
2018-04-02T05:20:50.446Z,4.68
2018-04-02T05:21:50.466Z,4.71
2018-04-02T05:22:50.529Z,4.71
2018-04-02T05:23:50.485Z,4.56
2018-04-02T05:24:50.499Z,4.70
2018-04-02T05:25:50.511Z,4.59
2018-04-02T05:26:50.525Z,4.56
2018-04-02T05:27:50.544Z,4.59
2018-04-02T05:28:50.554Z,4.40
2018-04-02T05:29:50.954Z,4.04
2018-04-02T05:30:50.595Z,3.95
2018-04-02T05:31:50.594Z,3.92
2018-04-02T05:32:50.608Z,4.22
2018-04-02T05:33:50.624Z,4.44
2018-04-02T05:34:50.637Z,4.67
2018-04-02T05:35:50.656Z,4.78
2018-04-02T05:36:50.675Z,4.87
2018-04-02T05:37:50.685Z,4.94
2018-04-02T05:38:50.693Z,5.11
2018-04-02T05:39:50.706Z,5.29
2018-04-02T05:40:50.731Z,5.47
2018-04-02T05:41:50.754Z,5.79
2018-04-02T05:42:50.752Z,5.99
2018-04-02T05:43:50.779Z,6.28
2018-04-02T05:44:50.784Z,6.56
2018-04-02T05:45:50.790Z,6.75
2018-04-02T05:46:50.806Z,6.82
2018-04-02T05:47:50.822Z,6.88
2018-04-02T05:48:50.840Z,7.00
2018-04-02T05:49:50.850Z,7.00
2018-04-02T05:50:50.868Z,6.96
2018-04-02T05:51:50.883Z,6.36
2018-04-02T05:52:50.898Z,6.48
2018-04-02T05:53:50.914Z,6.79
2018-04-02T05:54:50.933Z,7.03
2018-04-02T05:55:50.949Z,7.21
2018-04-02T05:56:50.960Z,7.36
2018-04-02T05:57:50.975Z,7.79
2018-04-02T05:58:50.992Z,7.60
2018-04-02T05:59:51.015Z,8.20
2018-04-02T06:00:51.020Z,8.41
2018-04-02T06:01:51.040Z,8.67
2018-04-02T06:02:51.054Z,8.82
2018-04-02T06:03:51.072Z,9.11
2018-04-02T06:04:51.085Z,9.41
2018-04-02T06:05:51.101Z,9.37
2018-04-02T06:06:51.166Z,9.03
2018-04-02T06:07:51.137Z,9.22
2018-04-02T06:08:51.158Z,9.22
2018-04-02T06:09:51.171Z,9.32
2018-04-02T06:10:51.184Z,9.31
2018-04-02T06:11:51.201Z,9.23
2018-04-02T06:12:51.221Z,9.44
2018-04-02T06:13:51.238Z,9.55
2018-04-02T06:14:51.252Z,9.61
2018-04-02T06:15:51.285Z,9.87
2018-04-02T06:16:51.286Z,9.87
2018-04-02T06:17:51.306Z,9.99
2018-04-02T06:18:51.320Z,10.04
2018-04-02T06:19:51.335Z,9.84
2018-04-02T06:20:51.402Z,10.01
2018-04-02T06:21:51.380Z,9.39
2018-04-02T06:22:51.390Z,9.26
2018-04-02T06:23:51.444Z,9.25
2018-04-02T06:24:51.458Z,9.36
2018-04-02T06:25:51.441Z,9.32
2018-04-02T06:26:51.455Z,9.10
2018-04-02T06:27:51.483Z,9.11
2018-04-02T06:28:51.489Z,8.70
2018-04-02T06:29:51.527Z,8.45
2018-04-02T06:30:51.524Z,8.38
2018-04-02T06:31:51.538Z,8.10
2018-04-02T06:32:51.556Z,7.95
2018-04-02T06:33:51.583Z,7.66
2018-04-02T06:34:51.597Z,7.69
2018-04-02T06:35:51.607Z,7.58
2018-04-02T06:36:51.625Z,7.72
2018-04-02T06:37:51.640Z,7.53
2018-04-02T06:38:51.660Z,7.48
2018-04-02T06:39:51.671Z,7.17
2018-04-02T06:40:51.690Z,7.15
2018-04-02T06:41:51.712Z,7.48
2018-04-02T06:42:51.731Z,7.51
2018-04-02T06:43:51.739Z,7.67
2018-04-02T06:44:51.756Z,7.83
2018-04-02T06:45:51.776Z,7.80
2018-04-02T06:46:51.785Z,7.87
2018-04-02T06:47:51.802Z,7.90
2018-04-02T06:48:51.817Z,7.93
2018-04-02T06:49:51.834Z,7.98
2018-04-02T06:50:51.852Z,8.03
2018-04-02T06:51:51.870Z,8.18
2018-04-02T06:52:51.892Z,8.16
2018-04-02T06:53:51.901Z,8.03
2018-04-02T06:54:51.912Z,8.00
2018-04-02T06:55:51.950Z,7.95
2018-04-02T06:56:51.949Z,8.01
2018-04-02T06:57:51.971Z,8.01
2018-04-02T06:58:51.976Z,8.01
2018-04-02T06:59:51.996Z,8.01
2018-04-02T07:00:52.015Z,8.12
2018-04-02T07:01:52.033Z,8.15
2018-04-02T07:02:52.039Z,7.90
2018-04-02T07:03:52.060Z,7.83
2018-04-02T07:04:52.082Z,7.91
2018-04-02T07:05:52.099Z,8.00
2018-04-02T07:06:52.110Z,7.63
2018-04-02T07:07:52.130Z,7.47
2018-04-02T07:08:52.135Z,7.51
2018-04-02T07:09:52.154Z,7.80
2018-04-02T07:10:52.169Z,7.98
2018-04-02T07:11:52.183Z,8.18
2018-04-02T07:12:52.205Z,8.15
2018-04-02T07:13:52.215Z,8.12
2018-04-02T07:14:52.230Z,8.19
2018-04-02T07:15:52.247Z,8.19
2018-04-02T07:16:52.263Z,7.90
2018-04-02T07:17:52.280Z,7.95
2018-04-02T07:18:52.292Z,7.79
2018-04-02T07:19:52.315Z,7.70
2018-04-02T07:20:52.323Z,7.95
2018-04-02T07:21:52.340Z,8.31
2018-04-02T07:22:52.358Z,8.48
2018-04-02T07:23:52.374Z,8.66
2018-04-02T07:24:52.388Z,8.79
2018-04-02T07:25:52.401Z,8.74
2018-04-02T07:26:52.437Z,8.45
2018-04-02T07:27:52.435Z,8.44
2018-04-02T07:28:52.452Z,8.37
2018-04-02T07:29:52.465Z,7.79
2018-04-02T07:30:52.483Z,7.77
2018-04-02T07:31:52.499Z,8.06
2018-04-02T07:32:52.518Z,8.49
2018-04-02T07:33:52.538Z,8.52
2018-04-02T07:34:52.545Z,8.38
2018-04-02T07:35:52.566Z,8.20
2018-04-02T07:36:52.577Z,8.30
2018-04-02T07:37:52.602Z,8.44
2018-04-02T07:38:52.617Z,8.88
2018-04-02T07:39:52.627Z,8.87
2018-04-02T07:40:52.644Z,8.61
2018-04-02T07:41:52.661Z,9.40
2018-04-02T07:42:52.677Z,10.30
2018-04-02T07:43:52.692Z,10.71
2018-04-02T07:44:52.707Z,9.94
2018-04-02T07:45:52.724Z,9.55
2018-04-02T07:46:52.743Z,9.74
2018-04-02T07:47:52.760Z,9.43
2018-04-02T07:48:52.784Z,9.86
2018-04-02T07:49:52.809Z,10.46
2018-04-02T07:50:52.808Z,10.33
2018-04-02T07:51:52.827Z,10.38
2018-04-02T07:52:52.847Z,10.59
2018-04-02T07:53:52.862Z,10.61
2018-04-02T07:54:52.878Z,10.75
2018-04-02T07:55:52.894Z,11.27
2018-04-02T07:56:52.912Z,11.50
2018-04-02T07:57:52.931Z,11.50
2018-04-02T07:58:52.953Z,12.00
2018-04-02T07:59:52.981Z,11.59
2018-04-02T08:00:52.985Z,11.43
2018-04-02T08:01:53.006Z,11.27
2018-04-02T08:02:53.090Z,10.53
2018-04-02T08:03:53.036Z,10.93
2018-04-02T08:04:53.058Z,10.82
2018-04-02T08:05:53.072Z,11.12
2018-04-02T08:06:53.097Z,11.94
2018-04-02T08:07:53.108Z,12.76
2018-04-02T08:08:53.128Z,12.04
2018-04-02T08:09:53.144Z,12.02
2018-04-02T08:10:53.174Z,12.46
2018-04-02T08:11:53.188Z,13.31
2018-04-02T08:12:53.194Z,13.56
2018-04-02T08:13:53.223Z,13.20
2018-04-02T08:14:53.233Z,14.11
2018-04-02T08:15:53.261Z,14.55
2018-04-02T08:16:53.278Z,15.19
2018-04-02T08:17:53.318Z,15.09
2018-04-02T08:18:53.333Z,14.88
2018-04-02T08:19:53.349Z,15.09
2018-04-02T08:20:53.360Z,15.04
2018-04-02T08:21:53.386Z,14.50
2018-04-02T08:22:53.394Z,13.57
2018-04-02T08:23:53.413Z,14.85
2018-04-02T08:24:53.438Z,14.23
2018-04-02T08:25:53.454Z,14.18
2018-04-02T08:26:53.474Z,14.44
2018-04-02T08:27:53.499Z,14.78
2018-04-02T08:28:53.518Z,15.52
2018-04-02T08:29:53.537Z,16.28
2018-04-02T08:30:53.558Z,17.01
2018-04-02T08:31:53.578Z,16.72
2018-04-02T08:32:53.600Z,16.76
2018-04-02T08:33:53.621Z,16.36
2018-04-02T08:34:53.644Z,15.77
2018-04-02T08:35:53.662Z,15.17
2018-04-02T08:36:53.684Z,14.69
2018-04-02T08:37:53.706Z,14.18
2018-04-02T08:38:53.774Z,13.08
2018-04-02T08:39:53.743Z,13.00
2018-04-02T08:40:53.762Z,13.13
2018-04-02T08:41:53.781Z,13.30
2018-04-02T08:42:53.808Z,12.55
2018-04-02T08:43:53.821Z,12.83
2018-04-02T08:44:53.842Z,12.39
2018-04-02T08:45:53.870Z,11.95
2018-04-02T08:46:53.887Z,11.94
2018-04-02T08:47:53.901Z,11.91
2018-04-02T08:48:53.921Z,11.94
2018-04-02T08:49:53.936Z,12.17
2018-04-02T08:50:53.956Z,12.09
2018-04-02T08:51:54.053Z,12.07
2018-04-02T08:52:54.023Z,12.24
2018-04-02T08:53:54.014Z,12.65
2018-04-02T08:54:54.033Z,12.21
2018-04-02T08:55:54.058Z,12.43
2018-04-02T08:56:54.086Z,12.67
2018-04-02T08:57:54.089Z,12.46
2018-04-02T08:58:54.127Z,12.02
2018-04-02T08:59:54.131Z,12.39
2018-04-02T09:00:54.248Z,12.82
2018-04-02T09:01:54.165Z,13.08
2018-04-02T09:02:54.185Z,12.46
2018-04-02T09:03:54.204Z,12.95
2018-04-02T09:04:54.223Z,13.08
2018-04-02T09:05:54.237Z,13.18
2018-04-02T09:06:54.282Z,13.35
2018-04-02T09:07:54.283Z,13.68
2018-04-02T09:08:54.305Z,13.37
2018-04-02T09:09:54.312Z,14.00
2018-04-02T09:10:54.332Z,13.19
2018-04-02T09:11:54.350Z,12.98
2018-04-02T09:12:54.456Z,13.38
2018-04-02T09:13:54.398Z,13.30
2018-04-02T09:14:54.406Z,13.52
2018-04-02T09:15:54.435Z,14.07
2018-04-02T09:16:54.443Z,14.10
2018-04-02T09:17:54.461Z,12.87
2018-04-02T09:18:54.492Z,13.22
2018-04-02T09:19:54.503Z,12.75
2018-04-02T09:20:54.519Z,12.73
2018-04-02T09:21:54.537Z,13.05
2018-04-02T09:22:54.558Z,12.90
2018-04-02T09:23:54.584Z,13.22
2018-04-02T09:24:54.603Z,12.98
2018-04-02T09:25:54.616Z,13.47
2018-04-02T09:26:54.637Z,13.60
2018-04-02T09:27:54.649Z,13.74
2018-04-02T09:28:54.674Z,13.70
2018-04-02T09:29:54.692Z,13.49
2018-04-02T09:30:54.704Z,13.18
2018-04-02T09:31:54.730Z,13.38
2018-04-02T09:32:54.747Z,13.08
2018-04-02T09:33:54.765Z,13.71
2018-04-02T09:34:54.783Z,13.27
2018-04-02T09:35:54.803Z,13.46
2018-04-02T09:36:54.818Z,13.99
2018-04-02T09:37:54.836Z,14.30
2018-04-02T09:38:54.866Z,13.56
2018-04-02T09:39:54.877Z,13.56
2018-04-02T09:40:54.898Z,13.86
2018-04-02T09:41:54.913Z,14.11
2018-04-02T09:42:54.931Z,13.68
2018-04-02T09:43:54.953Z,13.25
2018-04-02T09:44:54.970Z,13.71
2018-04-02T09:45:54.986Z,13.59
2018-04-02T09:46:55.004Z,13.65
2018-04-02T09:47:55.029Z,14.03
2018-04-02T09:48:55.041Z,14.07
2018-04-02T09:49:55.061Z,14.65
2018-04-02T09:50:55.083Z,15.11
2018-04-02T09:51:55.106Z,14.84
2018-04-02T09:52:55.124Z,15.29
2018-04-02T09:53:55.134Z,15.59
2018-04-02T09:54:55.164Z,15.84
2018-04-02T09:55:55.178Z,15.70
2018-04-02T09:56:55.210Z,14.69
2018-04-02T09:57:55.226Z,14.18
2018-04-02T09:58:55.237Z,13.54
2018-04-02T09:59:55.269Z,13.39
2018-04-02T10:00:55.408Z,13.18
2018-04-02T10:01:55.291Z,13.37
2018-04-02T10:02:55.307Z,13.42
2018-04-02T10:03:55.329Z,13.70
2018-04-02T10:04:55.405Z,14.00
2018-04-02T10:05:55.370Z,14.51
2018-04-02T10:06:55.388Z,14.51
2018-04-02T10:07:55.404Z,14.79
2018-04-02T10:08:55.428Z,14.99
2018-04-02T10:09:55.490Z,14.94
2018-04-02T10:10:55.461Z,14.92
2018-04-02T10:11:55.482Z,15.29
2018-04-02T10:12:55.499Z,15.42
2018-04-02T10:13:55.520Z,15.15
2018-04-02T10:14:55.537Z,14.40
2018-04-02T10:15:55.572Z,14.18
2018-04-02T10:16:55.577Z,14.08
2018-04-02T10:17:55.594Z,14.33
2018-04-02T10:18:55.615Z,14.33
2018-04-02T10:19:55.636Z,14.47
2018-04-02T10:20:55.653Z,14.88
2018-04-02T10:21:55.674Z,14.40
2018-04-02T10:22:55.703Z,14.15
2018-04-02T10:23:55.844Z,14.07
2018-04-02T10:24:55.755Z,14.37
2018-04-02T10:25:55.749Z,13.99
2018-04-02T10:26:55.769Z,14.04
2018-04-02T10:27:55.792Z,14.23
2018-04-02T10:28:55.808Z,14.33
2018-04-02T10:29:55.851Z,14.11
2018-04-02T10:30:55.848Z,14.25
2018-04-02T10:31:55.864Z,14.85
2018-04-02T10:32:55.885Z,14.66
2018-04-02T10:33:55.901Z,14.51
2018-04-02T10:34:56.031Z,14.28
2018-04-02T10:35:55.944Z,14.25
2018-04-02T10:36:55.963Z,14.30
2018-04-02T10:37:55.980Z,14.48
2018-04-02T10:38:56.000Z,14.78
2018-04-02T10:39:56.021Z,15.29
2018-04-02T10:40:56.042Z,15.39
2018-04-02T10:41:56.058Z,14.82
2018-04-02T10:42:56.081Z,14.73
2018-04-02T10:43:56.095Z,14.14
2018-04-02T10:44:56.120Z,13.89
2018-04-02T10:45:56.134Z,14.40
2018-04-02T10:46:56.156Z,14.00
2018-04-02T10:47:56.181Z,14.37
2018-04-02T10:48:56.209Z,14.41
2018-04-02T10:49:56.213Z,14.65
2018-04-02T10:50:56.237Z,14.78
2018-04-02T10:51:56.251Z,14.53
2018-04-02T10:52:56.273Z,14.47
2018-04-02T10:53:56.328Z,14.50
2018-04-02T10:54:56.313Z,14.77
2018-04-02T10:55:56.332Z,15.00
2018-04-02T10:56:56.350Z,14.78
2018-04-02T10:57:56.367Z,14.72
2018-04-02T10:58:56.394Z,15.21
2018-04-02T10:59:56.408Z,15.28
2018-04-02T11:00:56.426Z,14.91
2018-04-02T11:01:56.445Z,15.31
2018-04-02T11:02:56.465Z,15.21
2018-04-02T11:03:56.483Z,15.58
2018-04-02T11:04:56.503Z,15.62
2018-04-02T11:05:56.524Z,15.91
2018-04-02T11:06:56.542Z,15.17
2018-04-02T11:07:56.563Z,14.96
2018-04-02T11:08:56.581Z,14.99
2018-04-02T11:09:56.599Z,14.82
2018-04-02T11:10:56.621Z,14.65
2018-04-02T11:11:56.643Z,14.73
2018-04-02T11:12:56.662Z,15.19
2018-04-02T11:13:56.696Z,14.72
2018-04-02T11:14:56.698Z,14.47
2018-04-02T11:15:56.720Z,14.50
2018-04-02T11:16:56.740Z,13.92
2018-04-02T11:17:56.777Z,14.26
2018-04-02T11:18:56.782Z,14.53
2018-04-02T11:19:56.802Z,14.60
2018-04-02T11:20:56.818Z,14.50
2018-04-02T11:21:56.836Z,14.18
2018-04-02T11:22:56.852Z,14.05
2018-04-02T11:23:56.874Z,14.03
2018-04-02T11:24:56.893Z,14.28
2018-04-02T11:25:56.914Z,14.84
2018-04-02T11:26:56.928Z,14.86
2018-04-02T11:27:56.950Z,15.40
2018-04-02T11:28:56.989Z,15.22
2018-04-02T11:29:56.991Z,15.19
2018-04-02T11:30:57.009Z,15.55
2018-04-02T11:31:57.027Z,15.52
2018-04-02T11:32:57.049Z,15.70
2018-04-02T11:33:57.069Z,16.01
2018-04-02T11:34:57.092Z,15.80
2018-04-02T11:35:57.106Z,15.25
2018-04-02T11:36:57.126Z,15.54
2018-04-02T11:37:57.149Z,15.52
2018-04-02T11:38:57.167Z,15.49
2018-04-02T11:39:57.221Z,15.10
2018-04-02T11:40:57.206Z,14.77
2018-04-02T11:41:57.222Z,15.11
2018-04-02T11:42:57.253Z,14.26
2018-04-02T11:43:57.265Z,14.14
2018-04-02T11:44:57.284Z,13.96
2018-04-02T11:45:57.300Z,14.04
2018-04-02T11:46:57.321Z,13.86
2018-04-02T11:47:57.341Z,14.47
2018-04-02T11:48:57.359Z,14.55
2018-04-02T11:49:57.378Z,14.48
2018-04-02T11:50:57.400Z,14.78
2018-04-02T11:51:57.415Z,14.91
2018-04-02T11:52:57.438Z,14.73
2018-04-02T11:53:57.455Z,14.79
2018-04-02T11:54:57.479Z,15.14
2018-04-02T11:55:57.517Z,15.49
2018-04-02T11:56:57.514Z,15.06
2018-04-02T11:57:57.534Z,15.27
2018-04-02T11:58:57.552Z,15.21
2018-04-02T11:59:57.577Z,15.15
2018-04-02T12:00:57.594Z,15.43
2018-04-02T12:01:57.610Z,15.44
2018-04-02T12:02:57.636Z,15.15
2018-04-02T12:03:57.669Z,14.73
2018-04-02T12:04:57.670Z,15.18
2018-04-02T12:05:57.690Z,14.77
2018-04-02T12:06:57.713Z,14.73
2018-04-02T12:07:57.725Z,14.77
2018-04-02T12:08:57.751Z,14.59
2018-04-02T12:09:57.764Z,14.86
2018-04-02T12:10:57.786Z,15.39
2018-04-02T12:11:57.804Z,14.79
2018-04-02T12:12:57.822Z,14.53
2018-04-02T12:13:57.844Z,14.55
2018-04-02T12:14:57.860Z,14.48
2018-04-02T12:15:57.885Z,14.35
2018-04-02T12:16:57.906Z,13.96
2018-04-02T12:17:57.923Z,14.00
2018-04-02T12:18:57.939Z,14.15
2018-04-02T12:19:57.974Z,13.83
2018-04-02T12:20:58.025Z,13.71
2018-04-02T12:21:58.010Z,13.79
2018-04-02T12:22:58.022Z,14.08
2018-04-02T12:23:58.034Z,14.58
2018-04-02T12:24:58.057Z,14.23
2018-04-02T12:25:58.074Z,14.22
2018-04-02T12:26:58.092Z,14.36
2018-04-02T12:27:58.111Z,14.36
2018-04-02T12:28:58.128Z,14.15
2018-04-02T12:29:58.147Z,14.45
2018-04-02T12:30:58.175Z,14.78
2018-04-02T12:31:58.192Z,14.23
2018-04-02T12:32:58.203Z,14.41
2018-04-02T12:33:58.224Z,14.37
2018-04-02T12:34:58.242Z,14.69
2018-04-02T12:35:58.263Z,14.89
2018-04-02T12:36:58.303Z,14.55
2018-04-02T12:37:58.296Z,14.59
2018-04-02T12:38:58.315Z,14.54
2018-04-02T12:39:58.336Z,14.37
2018-04-02T12:40:58.354Z,14.81
2018-04-02T12:41:58.376Z,14.94
2018-04-02T12:42:58.391Z,14.78
2018-04-02T12:43:58.411Z,14.68
2018-04-02T12:44:58.432Z,14.92
2018-04-02T12:45:58.445Z,15.07
2018-04-02T12:46:58.473Z,14.82
2018-04-02T12:47:58.484Z,14.79
2018-04-02T12:48:58.511Z,14.63
2018-04-02T12:49:58.521Z,14.47
2018-04-02T12:50:58.545Z,14.25
2018-04-02T12:51:58.557Z,14.51
2018-04-02T12:52:58.576Z,14.70
2018-04-02T12:53:58.595Z,14.79
2018-04-02T12:54:58.614Z,14.78
2018-04-02T12:55:58.648Z,14.78
2018-04-02T12:56:58.653Z,14.78
2018-04-02T12:57:58.691Z,14.97
2018-04-02T12:58:58.705Z,14.91
2018-04-02T12:59:58.711Z,14.78
2018-04-02T13:00:58.730Z,14.89
2018-04-02T13:01:58.746Z,14.53
2018-04-02T13:02:58.765Z,14.68
2018-04-02T13:03:58.784Z,15.09
2018-04-02T13:04:58.804Z,15.40
2018-04-02T13:05:58.822Z,15.54
2018-04-02T13:06:58.839Z,15.64
2018-04-02T13:07:58.858Z,15.39